sensor_id;sensor_type;location;lat;lon;timestamp;pressure;altitude;pressure_sealevel;temperature;humidity
30967;BME280;17649;51.836;8.330;2023-04-01T00:00:05;98876.75;;;10.27;nan
30967;BME280;17649;51.836;8.330;2023-04-01T00:03:06;98868.19;;;10.27;nan
30967;BME280;17649;51.836;8.330;2023-04-01T00:06:07;98865.13;;;10.22;nan
30967;BME280;17649;51.836;8.330;2023-04-01T00:09:07;98866.34;;;10.38;nan
30967;BME280;17649;51.836;8.330;2023-04-01T00:12:07;98871.13;;;10.22;nan
30967;BME280;17649;51.836;8.330;2023-04-01T00:15:08;98869.00;;;10.27;nan
30967;BME280;17649;51.836;8.330;2023-04-01T00:18:09;98864.25;;;10.32;nan
30967;BME280;17649;51.836;8.330;2023-04-01T00:21:09;98859.56;;;10.26;nan
30967;BME280;17649;51.836;8.330;2023-04-01T00:24:10;98863.88;;;10.37;nan
30967;BME280;17649;51.836;8.330;2023-04-01T00:27:10;98853.72;;;10.24;nan
30967;BME280;17649;51.836;8.330;2023-04-01T00:30:10;98853.28;;;10.08;nan
30967;BME280;17649;51.836;8.330;2023-04-01T00:33:11;98851.25;;;10.23;nan
30967;BME280;17649;51.836;8.330;2023-04-01T00:36:15;98846.56;;;10.16;nan
30967;BME280;17649;51.836;8.330;2023-04-01T00:39:16;98850.22;;;10.14;nan
30967;BME280;17649;51.836;8.330;2023-04-01T00:42:16;98845.97;;;10.24;nan
30967;BME280;17649;51.836;8.330;2023-04-01T00:45:49;98844.38;;;10.12;nan
30967;BME280;17649;51.836;8.330;2023-04-01T00:48:52;98835.31;;;10.06;nan
30967;BME280;17649;51.836;8.330;2023-04-01T00:51:54;98841.44;;;10.05;nan
30967;BME280;17649;51.836;8.330;2023-04-01T00:54:56;98841.81;;;10.01;nan
30967;BME280;17649;51.836;8.330;2023-04-01T00:57:59;98845.53;;;10.08;nan
30967;BME280;17649;51.836;8.330;2023-04-01T01:01:01;98840.63;;;10.05;nan
30967;BME280;17649;51.836;8.330;2023-04-01T01:04:02;98840.41;;;9.97;nan
30967;BME280;17649;51.836;8.330;2023-04-01T01:16:24;98845.09;;;10.03;nan
30967;BME280;17649;51.836;8.330;2023-04-01T01:19:32;98838.91;;;9.94;nan
30967;BME280;17649;51.836;8.330;2023-04-01T01:25:51;98840.22;;;9.89;nan
30967;BME280;17649;51.836;8.330;2023-04-01T01:35:20;98832.59;;;9.87;nan
30967;BME280;17649;51.836;8.330;2023-04-01T01:38:23;98844.47;;;9.78;nan
30967;BME280;17649;51.836;8.330;2023-04-01T01:41:25;98845.91;;;9.71;nan
30967;BME280;17649;51.836;8.330;2023-04-01T01:44:26;98837.53;;;9.79;nan
30967;BME280;17649;51.836;8.330;2023-04-01T01:47:28;98844.19;;;9.93;nan
30967;BME280;17649;51.836;8.330;2023-04-01T01:50:29;98842.50;;;9.82;nan
30967;BME280;17649;51.836;8.330;2023-04-01T01:53:30;98843.06;;;9.74;nan
30967;BME280;17649;51.836;8.330;2023-04-01T01:56:30;98840.38;;;9.76;nan
30967;BME280;17649;51.836;8.330;2023-04-01T01:59:33;98833.97;;;9.59;nan
30967;BME280;17649;51.836;8.330;2023-04-01T02:02:35;98840.91;;;9.59;nan
30967;BME280;17649;51.836;8.330;2023-04-01T02:05:36;98835.34;;;9.74;nan
30967;BME280;17649;51.836;8.330;2023-04-01T02:08:39;98840.00;;;9.80;nan
30967;BME280;17649;51.836;8.330;2023-04-01T02:11:42;98835.56;;;9.82;nan
30967;BME280;17649;51.836;8.330;2023-04-01T02:14:47;98831.81;;;9.75;nan
30967;BME280;17649;51.836;8.330;2023-04-01T02:17:50;98832.84;;;9.84;nan
30967;BME280;17649;51.836;8.330;2023-04-01T02:20:52;98838.97;;;9.72;nan
30967;BME280;17649;51.836;8.330;2023-04-01T02:23:52;98835.91;;;9.78;nan
30967;BME280;17649;51.836;8.330;2023-04-01T02:26:53;98827.47;;;9.76;nan
30967;BME280;17649;51.836;8.330;2023-04-01T02:29:53;98828.03;;;9.79;nan
30967;BME280;17649;51.836;8.330;2023-04-01T02:32:54;98825.28;;;9.92;nan
30967;BME280;17649;51.836;8.330;2023-04-01T02:35:55;98829.25;;;9.96;nan
30967;BME280;17649;51.836;8.330;2023-04-01T02:38:55;98818.84;;;9.86;nan
30967;BME280;17649;51.836;8.330;2023-04-01T02:41:59;98827.47;;;9.97;nan
30967;BME280;17649;51.836;8.330;2023-04-01T02:44:59;98827.00;;;10.03;nan
30967;BME280;17649;51.836;8.330;2023-04-01T02:48:00;98827.03;;;9.92;nan
30967;BME280;17649;51.836;8.330;2023-04-01T02:51:00;98820.69;;;9.96;nan
30967;BME280;17649;51.836;8.330;2023-04-01T02:54:01;98827.31;;;9.89;nan
30967;BME280;17649;51.836;8.330;2023-04-01T02:57:01;98828.72;;;9.81;nan
30967;BME280;17649;51.836;8.330;2023-04-01T03:00:02;98833.78;;;9.83;nan
30967;BME280;17649;51.836;8.330;2023-04-01T03:03:02;98832.88;;;9.73;nan
30967;BME280;17649;51.836;8.330;2023-04-01T03:06:06;98840.00;;;9.80;nan
30967;BME280;17649;51.836;8.330;2023-04-01T03:09:07;98840.81;;;9.81;nan
30967;BME280;17649;51.836;8.330;2023-04-01T03:12:07;98841.88;;;9.78;nan
30967;BME280;17649;51.836;8.330;2023-04-01T03:15:12;98836.41;;;9.72;nan
30967;BME280;17649;51.836;8.330;2023-04-01T03:18:13;98839.44;;;9.77;nan
30967;BME280;17649;51.836;8.330;2023-04-01T03:21:14;98847.97;;;9.89;nan
30967;BME280;17649;51.836;8.330;2023-04-01T03:24:15;98845.41;;;9.77;nan
30967;BME280;17649;51.836;8.330;2023-04-01T03:27:15;98842.69;;;9.79;nan
30967;BME280;17649;51.836;8.330;2023-04-01T03:30:15;98841.16;;;9.88;nan
30967;BME280;17649;51.836;8.330;2023-04-01T03:33:15;98845.09;;;9.71;nan
30967;BME280;17649;51.836;8.330;2023-04-01T03:36:16;98848.25;;;9.74;nan
30967;BME280;17649;51.836;8.330;2023-04-01T03:39:16;98844.16;;;9.72;nan
30967;BME280;17649;51.836;8.330;2023-04-01T03:42:18;98848.47;;;9.82;nan
30967;BME280;17649;51.836;8.330;2023-04-01T03:45:18;98834.75;;;9.71;nan
30967;BME280;17649;51.836;8.330;2023-04-01T03:48:18;98857.53;;;9.66;nan
30967;BME280;17649;51.836;8.330;2023-04-01T03:51:19;98851.47;;;9.55;nan
30967;BME280;17649;51.836;8.330;2023-04-01T03:54:19;98856.25;;;9.60;nan
30967;BME280;17649;51.836;8.330;2023-04-01T03:57:20;98856.25;;;9.71;nan
30967;BME280;17649;51.836;8.330;2023-04-01T04:00:20;98854.88;;;9.56;nan
30967;BME280;17649;51.836;8.330;2023-04-01T04:03:20;98860.13;;;9.66;nan
30967;BME280;17649;51.836;8.330;2023-04-01T04:06:20;98857.44;;;9.67;nan
30967;BME280;17649;51.836;8.330;2023-04-01T04:09:21;98854.38;;;9.62;nan
30967;BME280;17649;51.836;8.330;2023-04-01T04:12:21;98856.16;;;9.50;nan
30967;BME280;17649;51.836;8.330;2023-04-01T04:15:21;98852.88;;;9.48;nan
30967;BME280;17649;51.836;8.330;2023-04-01T04:18:22;98864.50;;;9.43;nan
30967;BME280;17649;51.836;8.330;2023-04-01T04:21:22;98860.72;;;9.58;nan
30967;BME280;17649;51.836;8.330;2023-04-01T04:24:22;98862.50;;;9.46;nan
30967;BME280;17649;51.836;8.330;2023-04-01T04:27:22;98861.88;;;9.65;nan
30967;BME280;17649;51.836;8.330;2023-04-01T04:30:23;98861.19;;;9.63;nan
30967;BME280;17649;51.836;8.330;2023-04-01T04:33:23;98865.91;;;9.58;nan
30967;BME280;17649;51.836;8.330;2023-04-01T04:36:24;98866.59;;;9.49;nan
30967;BME280;17649;51.836;8.330;2023-04-01T04:39:24;98866.16;;;9.55;nan
30967;BME280;17649;51.836;8.330;2023-04-01T04:42:24;98866.97;;;9.33;nan
30967;BME280;17649;51.836;8.330;2023-04-01T04:45:24;98875.09;;;9.40;nan
30967;BME280;17649;51.836;8.330;2023-04-01T04:48:25;98873.19;;;9.42;nan
30967;BME280;17649;51.836;8.330;2023-04-01T04:51:25;98877.19;;;9.35;nan
30967;BME280;17649;51.836;8.330;2023-04-01T04:54:25;98878.00;;;9.46;nan
30967;BME280;17649;51.836;8.330;2023-04-01T04:57:26;98885.88;;;9.45;nan
30967;BME280;17649;51.836;8.330;2023-04-01T05:00:26;98880.94;;;9.31;nan
30967;BME280;17649;51.836;8.330;2023-04-01T05:03:26;98881.31;;;9.26;nan
30967;BME280;17649;51.836;8.330;2023-04-01T05:06:26;98888.56;;;9.43;nan
30967;BME280;17649;51.836;8.330;2023-04-01T05:09:29;98882.72;;;9.30;nan
30967;BME280;17649;51.836;8.330;2023-04-01T05:12:29;98891.84;;;9.34;nan
30967;BME280;17649;51.836;8.330;2023-04-01T05:15:30;98897.50;;;9.28;nan
30967;BME280;17649;51.836;8.330;2023-04-01T05:18:30;98900.06;;;9.28;nan
30967;BME280;17649;51.836;8.330;2023-04-01T05:21:31;98899.59;;;9.34;nan
30967;BME280;17649;51.836;8.330;2023-04-01T05:24:31;98902.06;;;9.36;nan
30967;BME280;17649;51.836;8.330;2023-04-01T05:27:32;98905.56;;;9.35;nan
30967;BME280;17649;51.836;8.330;2023-04-01T05:30:32;98909.34;;;9.53;nan
30967;BME280;17649;51.836;8.330;2023-04-01T05:33:33;98908.28;;;9.44;nan
30967;BME280;17649;51.836;8.330;2023-04-01T05:36:33;98909.56;;;9.50;nan
30967;BME280;17649;51.836;8.330;2023-04-01T05:39:37;98908.53;;;9.52;nan
30967;BME280;17649;51.836;8.330;2023-04-01T05:42:37;98912.56;;;9.77;nan
30967;BME280;17649;51.836;8.330;2023-04-01T05:45:38;98907.63;;;9.85;nan
30967;BME280;17649;51.836;8.330;2023-04-01T05:48:38;98910.22;;;9.85;nan
30967;BME280;17649;51.836;8.330;2023-04-01T05:51:38;98913.00;;;9.94;nan
30967;BME280;17649;51.836;8.330;2023-04-01T05:54:38;98910.47;;;9.82;nan
30967;BME280;17649;51.836;8.330;2023-04-01T06:01:16;98916.22;;;9.64;nan
30967;BME280;17649;51.836;8.330;2023-04-01T06:04:18;98919.19;;;9.48;nan
30967;BME280;17649;51.836;8.330;2023-04-01T06:07:18;98922.00;;;9.67;nan
30967;BME280;17649;51.836;8.330;2023-04-01T06:10:19;98921.56;;;9.40;nan
30967;BME280;17649;51.836;8.330;2023-04-01T06:13:30;98922.25;;;9.42;nan
30967;BME280;17649;51.836;8.330;2023-04-01T06:45:26;98930.69;;;10.09;nan
30967;BME280;17649;51.836;8.330;2023-04-01T06:48:38;98943.03;;;10.06;nan
30967;BME280;17649;51.836;8.330;2023-04-01T06:51:53;98940.97;;;9.89;nan
30967;BME280;17649;51.836;8.330;2023-04-01T06:58:04;98929.75;;;10.10;nan
30967;BME280;17649;51.836;8.330;2023-04-01T07:01:07;98939.50;;;10.18;nan
30967;BME280;17649;51.836;8.330;2023-04-01T07:04:14;98947.50;;;10.04;nan
30967;BME280;17649;51.836;8.330;2023-04-01T07:07:17;98947.25;;;10.07;nan
30967;BME280;17649;51.836;8.330;2023-04-01T07:10:23;98950.78;;;10.28;nan
30967;BME280;17649;51.836;8.330;2023-04-01T07:13:30;98951.47;;;10.30;nan
30967;BME280;17649;51.836;8.330;2023-04-01T07:16:35;98956.63;;;10.62;nan
30967;BME280;17649;51.836;8.330;2023-04-01T07:19:48;98951.22;;;10.33;nan
30967;BME280;17649;51.836;8.330;2023-04-01T07:22:55;98954.06;;;10.08;nan
30967;BME280;17649;51.836;8.330;2023-04-01T07:26:00;98954.63;;;10.34;nan
30967;BME280;17649;51.836;8.330;2023-04-01T07:29:01;98961.34;;;10.25;nan
30967;BME280;17649;51.836;8.330;2023-04-01T07:38:22;98966.75;;;10.54;nan
30967;BME280;17649;51.836;8.330;2023-04-01T07:57:50;98982.06;;;10.78;nan
30967;BME280;17649;51.836;8.330;2023-04-01T08:01:05;98982.75;;;11.01;nan
30967;BME280;17649;51.836;8.330;2023-04-01T08:04:22;98992.03;;;10.83;nan
30967;BME280;17649;51.836;8.330;2023-04-01T08:07:25;98998.28;;;10.80;nan
30967;BME280;17649;51.836;8.330;2023-04-01T08:16:37;98998.25;;;11.43;nan
30967;BME280;17649;51.836;8.330;2023-04-01T08:23:06;98999.06;;;11.43;nan
30967;BME280;17649;51.836;8.330;2023-04-01T08:26:15;98995.38;;;11.67;nan
30967;BME280;17649;51.836;8.330;2023-04-01T08:29:19;98997.56;;;11.71;nan
30967;BME280;17649;51.836;8.330;2023-04-01T08:32:32;99002.47;;;11.74;nan
30967;BME280;17649;51.836;8.330;2023-04-01T08:35:40;99001.31;;;11.57;nan
30967;BME280;17649;51.836;8.330;2023-04-01T08:45:05;99025.81;;;11.23;nan
30967;BME280;17649;51.836;8.330;2023-04-01T08:55:00;99022.84;;;11.27;nan
30967;BME280;17649;51.836;8.330;2023-04-01T09:05:25;99031.13;;;11.21;nan
30967;BME280;17649;51.836;8.330;2023-04-01T09:08:15;99037.56;;;11.57;nan
30967;BME280;17649;51.836;8.330;2023-04-01T09:21:13;99042.41;;;11.72;nan
30967;BME280;17649;51.836;8.330;2023-04-01T09:24:33;99044.66;;;11.76;nan
30967;BME280;17649;51.836;8.330;2023-04-01T09:27:43;99042.41;;;11.41;nan
30967;BME280;17649;51.836;8.330;2023-04-01T09:30:58;99053.31;;;11.65;nan
30967;BME280;17649;51.836;8.330;2023-04-01T09:37:18;99057.84;;;12.04;nan
30967;BME280;17649;51.836;8.330;2023-04-01T10:24:17;99090.00;;;11.71;nan
30967;BME280;17649;51.836;8.330;2023-04-01T10:27:28;99101.28;;;11.39;nan
30967;BME280;17649;51.836;8.330;2023-04-01T10:49:41;99098.63;;;12.32;nan
30967;BME280;17649;51.836;8.330;2023-04-01T10:59:20;99101.19;;;13.01;nan
30967;BME280;17649;51.836;8.330;2023-04-01T11:12:18;99113.19;;;11.72;nan
30967;BME280;17649;51.836;8.330;2023-04-01T11:34:35;99125.28;;;12.44;nan
30967;BME280;17649;51.836;8.330;2023-04-01T11:41:19;99128.38;;;13.07;nan
30967;BME280;17649;51.836;8.330;2023-04-01T11:44:23;99135.66;;;12.44;nan
30967;BME280;17649;51.836;8.330;2023-04-01T11:50:51;99141.69;;;12.64;nan
30967;BME280;17649;51.836;8.330;2023-04-01T11:56:58;99147.53;;;12.06;nan
30967;BME280;17649;51.836;8.330;2023-04-01T12:00:14;99156.75;;;11.99;nan
30967;BME280;17649;51.836;8.330;2023-04-01T12:12:38;99169.91;;;12.07;nan
30967;BME280;17649;51.836;8.330;2023-04-01T12:25:14;99177.78;;;12.27;nan
30967;BME280;17649;51.836;8.330;2023-04-01T12:34:53;99196.06;;;12.04;nan
30967;BME280;17649;51.836;8.330;2023-04-01T12:41:05;99194.03;;;12.29;nan
30967;BME280;17649;51.836;8.330;2023-04-01T12:44:17;99191.69;;;12.56;nan
30967;BME280;17649;51.836;8.330;2023-04-01T13:06:55;99216.06;;;12.44;nan
30967;BME280;17649;51.836;8.330;2023-04-01T13:10:09;99220.22;;;12.26;nan
30967;BME280;17649;51.836;8.330;2023-04-01T13:16:29;99227.75;;;12.59;nan
30967;BME280;17649;51.836;8.330;2023-04-01T13:19:43;99227.44;;;12.52;nan
30967;BME280;17649;51.836;8.330;2023-04-01T13:28:57;99233.25;;;12.75;nan
30967;BME280;17649;51.836;8.330;2023-04-01T13:44:37;99240.56;;;13.01;nan
30967;BME280;17649;51.836;8.330;2023-04-01T13:47:47;99247.78;;;12.88;nan
30967;BME280;17649;51.836;8.330;2023-04-01T14:01:00;99251.63;;;12.53;nan
30967;BME280;17649;51.836;8.330;2023-04-01T14:04:07;99258.06;;;12.59;nan
30967;BME280;17649;51.836;8.330;2023-04-01T14:07:17;99258.94;;;12.69;nan
30967;BME280;17649;51.836;8.330;2023-04-01T14:10:20;99256.47;;;12.77;nan
30967;BME280;17649;51.836;8.330;2023-04-01T14:29:52;99275.50;;;12.87;nan
30967;BME280;17649;51.836;8.330;2023-04-01T14:42:55;99296.03;;;13.30;nan
30967;BME280;17649;51.836;8.330;2023-04-01T15:02:30;99310.06;;;12.57;nan
30967;BME280;17649;51.836;8.330;2023-04-01T15:20:35;99339.75;;;12.64;nan
30967;BME280;17649;51.836;8.330;2023-04-01T15:23:51;99350.19;;;12.32;nan
30967;BME280;17649;51.836;8.330;2023-04-01T15:36:43;99370.72;;;12.03;nan
30967;BME280;17649;51.836;8.330;2023-04-01T15:46:47;99380.66;;;11.98;nan
30967;BME280;17649;51.836;8.330;2023-04-01T15:49:44;99383.56;;;12.05;nan
30967;BME280;17649;51.836;8.330;2023-04-01T15:56:16;99397.47;;;12.04;nan
30967;BME280;17649;51.836;8.330;2023-04-01T16:21:24;99418.72;;;12.30;nan
30967;BME280;17649;51.836;8.330;2023-04-01T16:24:48;99431.28;;;12.34;nan
30967;BME280;17649;51.836;8.330;2023-04-01T16:34:17;99446.53;;;12.28;nan
30967;BME280;17649;51.836;8.330;2023-04-01T16:37:21;99449.75;;;12.20;nan
30967;BME280;17649;51.836;8.330;2023-04-01T16:40:33;99457.91;;;12.04;nan
30967;BME280;17649;51.836;8.330;2023-04-01T16:46:56;99462.75;;;12.09;nan
30967;BME280;17649;51.836;8.330;2023-04-01T16:50:20;99464.78;;;11.94;nan
30967;BME280;17649;51.836;8.330;2023-04-01T16:53:25;99477.75;;;12.05;nan
30967;BME280;17649;51.836;8.330;2023-04-01T16:56:39;99485.97;;;12.10;nan
30967;BME280;17649;51.836;8.330;2023-04-01T16:59:55;99484.31;;;12.09;nan
30967;BME280;17649;51.836;8.330;2023-04-01T17:09:28;99495.16;;;12.03;nan
30967;BME280;17649;51.836;8.330;2023-04-01T17:12:35;99506.28;;;11.94;nan
30967;BME280;17649;51.836;8.330;2023-04-01T17:15:45;99517.91;;;11.88;nan
30967;BME280;17649;51.836;8.330;2023-04-01T17:31:54;99542.91;;;11.78;nan
30967;BME280;17649;51.836;8.330;2023-04-01T17:38:17;99556.59;;;11.80;nan
30967;BME280;17649;51.836;8.330;2023-04-01T17:44:46;99575.88;;;11.87;nan
30967;BME280;17649;51.836;8.330;2023-04-01T17:47:52;99576.72;;;11.88;nan
30967;BME280;17649;51.836;8.330;2023-04-01T17:54:29;99598.63;;;11.84;nan
30967;BME280;17649;51.836;8.330;2023-04-01T18:00:33;99605.00;;;11.80;nan
30967;BME280;17649;51.836;8.330;2023-04-01T18:13:34;99632.69;;;11.79;nan
30967;BME280;17649;51.836;8.330;2023-04-01T18:19:44;99650.72;;;11.46;nan
30967;BME280;17649;51.836;8.330;2023-04-01T18:22:53;99659.72;;;11.29;nan
30967;BME280;17649;51.836;8.330;2023-04-01T18:26:02;99669.88;;;11.32;nan
30967;BME280;17649;51.836;8.330;2023-04-01T18:29:50;99683.84;;;11.29;nan
30967;BME280;17649;51.836;8.330;2023-04-01T18:35:29;99688.19;;;11.29;nan
30967;BME280;17649;51.836;8.330;2023-04-01T18:38:36;99712.25;;;11.31;nan
30967;BME280;17649;51.836;8.330;2023-04-01T18:41:43;99713.94;;;11.19;nan
30967;BME280;17649;51.836;8.330;2023-04-01T18:44:50;99726.25;;;10.92;nan
30967;BME280;17649;51.836;8.330;2023-04-01T18:52:07;99737.94;;;10.97;nan
30967;BME280;17649;51.836;8.330;2023-04-01T18:54:52;99747.28;;;10.87;nan
30967;BME280;17649;51.836;8.330;2023-04-01T19:01:19;99761.94;;;10.63;nan
30967;BME280;17649;51.836;8.330;2023-04-01T19:04:42;99768.25;;;10.59;nan
30967;BME280;17649;51.836;8.330;2023-04-01T19:07:45;99771.44;;;10.50;nan
30967;BME280;17649;51.836;8.330;2023-04-01T19:20:57;99813.97;;;10.33;nan
30967;BME280;17649;51.836;8.330;2023-04-01T19:52:37;99866.63;;;10.05;nan
30967;BME280;17649;51.836;8.330;2023-04-01T19:59:01;99880.31;;;9.93;nan
30967;BME280;17649;51.836;8.330;2023-04-01T20:02:21;99897.47;;;9.94;nan
30967;BME280;17649;51.836;8.330;2023-04-01T20:08:58;99914.72;;;9.66;nan
30967;BME280;17649;51.836;8.330;2023-04-01T20:12:17;99919.72;;;9.69;nan
30967;BME280;17649;51.836;8.330;2023-04-01T20:15:22;99931.16;;;9.65;nan
30967;BME280;17649;51.836;8.330;2023-04-01T20:19:12;99936.31;;;9.65;nan
30967;BME280;17649;51.836;8.330;2023-04-01T20:21:49;99950.06;;;9.51;nan
30967;BME280;17649;51.836;8.330;2023-04-01T20:24:50;99954.78;;;9.31;nan
30967;BME280;17649;51.836;8.330;2023-04-01T20:31:04;99965.66;;;9.36;nan
30967;BME280;17649;51.836;8.330;2023-04-01T20:43:57;99998.94;;;8.98;nan
30967;BME280;17649;51.836;8.330;2023-04-01T20:56:29;100021.59;;;8.77;nan
30967;BME280;17649;51.836;8.330;2023-04-01T21:15:30;100053.34;;;8.79;nan
30967;BME280;17649;51.836;8.330;2023-04-01T21:21:46;100087.53;;;8.66;nan
30967;BME280;17649;51.836;8.330;2023-04-01T21:31:33;100103.03;;;8.66;nan
30967;BME280;17649;51.836;8.330;2023-04-01T21:35:23;100109.69;;;8.39;nan
30967;BME280;17649;51.836;8.330;2023-04-01T21:38:00;100104.44;;;8.41;nan
30967;BME280;17649;51.836;8.330;2023-04-01T21:44:14;100130.56;;;8.34;nan
30967;BME280;17649;51.836;8.330;2023-04-01T22:03:33;100176.63;;;8.41;nan
30967;BME280;17649;51.836;8.330;2023-04-01T22:06:42;100178.13;;;8.45;nan
30967;BME280;17649;51.836;8.330;2023-04-01T22:12:51;100190.78;;;8.32;nan
30967;BME280;17649;51.836;8.330;2023-04-01T22:15:58;100191.00;;;8.12;nan
30967;BME280;17649;51.836;8.330;2023-04-01T22:19:04;100206.47;;;8.12;nan
30967;BME280;17649;51.836;8.330;2023-04-01T22:22:18;100213.88;;;8.18;nan
30967;BME280;17649;51.836;8.330;2023-04-01T22:32:09;100227.41;;;8.05;nan
30967;BME280;17649;51.836;8.330;2023-04-01T22:42:04;100245.38;;;7.90;nan
30967;BME280;17649;51.836;8.330;2023-04-01T22:51:40;100259.31;;;7.86;nan
30967;BME280;17649;51.836;8.330;2023-04-01T22:54:45;100275.47;;;7.89;nan
30967;BME280;17649;51.836;8.330;2023-04-01T22:57:57;100279.69;;;7.90;nan
30967;BME280;17649;51.836;8.330;2023-04-01T23:01:14;100283.47;;;7.83;nan
30967;BME280;17649;51.836;8.330;2023-04-01T23:04:17;100299.41;;;7.91;nan
30967;BME280;17649;51.836;8.330;2023-04-01T23:10:25;100299.53;;;7.88;nan
30967;BME280;17649;51.836;8.330;2023-04-01T23:13:27;100307.72;;;7.79;nan
30967;BME280;17649;51.836;8.330;2023-04-01T23:16:34;100312.63;;;7.84;nan
30967;BME280;17649;51.836;8.330;2023-04-01T23:19:49;100318.69;;;7.83;nan
30967;BME280;17649;51.836;8.330;2023-04-01T23:26:07;100338.97;;;7.90;nan
30967;BME280;17649;51.836;8.330;2023-04-01T23:29:12;100340.75;;;7.52;nan
30967;BME280;17649;51.836;8.330;2023-04-01T23:32:17;100355.06;;;7.58;nan
30967;BME280;17649;51.836;8.330;2023-04-01T23:35:18;100351.91;;;7.53;nan
30967;BME280;17649;51.836;8.330;2023-04-01T23:38:22;100356.28;;;7.51;nan
30967;BME280;17649;51.836;8.330;2023-04-01T23:41:27;100362.81;;;7.58;nan
30967;BME280;17649;51.836;8.330;2023-04-01T23:44:29;100371.66;;;7.52;nan
30967;BME280;17649;51.836;8.330;2023-04-01T23:47:30;100371.94;;;7.46;nan
30967;BME280;17649;51.836;8.330;2023-04-01T23:50:32;100383.41;;;7.39;nan
30967;BME280;17649;51.836;8.330;2023-04-01T23:53:33;100390.72;;;7.48;nan
30967;BME280;17649;51.836;8.330;2023-04-01T23:56:36;100397.47;;;7.51;nan
30967;BME280;17649;51.836;8.330;2023-04-01T23:59:38;100396.06;;;7.43;nan
